PWSweather.com
Personal Weather Stations
Station Observations
KCOBLACK1
Chalet Park, Black Hawk, CO 80422

Chalet ParkBlack Hawk, CO 80422

Lat: 39.8294, Lon: -105.48

Elevation: 9370

Station Type: Vantage Pro2

http://www.oscaranddeb.com/weather

Latest ConditionsUpdated 11:15:06 AM MDT Sunday, May 29, 2016
Currently Today's Max Today's Min Today's Average
Temperature 54.5°F12.5°C 56.2°F13.4°C 41.1°F5.1°C 45.1°F7.3°C
Dew Point 24.4°F-4.2°C 30.0°F-1.1°C 24.1°F-4.4°C 27.1°F-2.7°C
Winds Calm Calm 7.0 mph SSE11.3 kmh SSE - 1.9 mph 3.1 kmh
Wind Gusts 8.0 mph12.9 kmh 13.0 mph20.9 kmh - -
Humidity 31% 62% 31% 50%
Pressure 29.98 in1015.2 mb 30.03 in1016.9 mb 29.98 in1015.2 mb -
Hour Temp Dew Point Humidity Winds Wind Gusts Pressure Precip Precip Rate Daily Precip Total
11:15 AM 54.5°F12.5°C 24.4°F-4.2°C 31% Calm Calm 8.0 mph12.9 kmh 29.98 in1015.2 mb 0.00 in0.0 mm 0.00 in0.0 mm 0.00 in0.0 mm
11:10 AM 54.6°F12.6°C 24.5°F-4.2°C 31% 3.0 mph WSW4.8 kmh WSW 4.0 mph6.4 kmh 29.98 in1015.2 mb 0.00 in0.0 mm 0.00 in0.0 mm 0.00 in0.0 mm
11:05 AM 54.3°F12.4°C 25.8°F-3.4°C 33% 1.0 mph WSW1.6 kmh WSW 4.0 mph6.4 kmh 29.99 in1015.6 mb 0.00 in0.0 mm 0.00 in0.0 mm 0.00 in0.0 mm
11:00 AM 54.1°F12.3°C 27.0°F-2.8°C 35% 4.0 mph WSW6.4 kmh WSW 5.0 mph8.0 kmh 29.99 in1015.6 mb 0.00 in0.0 mm 0.00 in0.0 mm 0.00 in0.0 mm
10:55 AM 54.1°F12.3°C 24.1°F-4.4°C 31% Calm Calm 4.0 mph6.4 kmh 29.99 in1015.6 mb 0.00 in0.0 mm 0.00 in0.0 mm 0.00 in0.0 mm
10:50 AM 54.3°F12.4°C 24.3°F-4.3°C 31% 3.0 mph NW4.8 kmh NW 8.0 mph12.9 kmh 29.99 in1015.6 mb 0.00 in0.0 mm 0.00 in0.0 mm 0.00 in0.0 mm
10:45 AM 54.1°F12.3°C 26.3°F-3.2°C 34% 2.0 mph NNW3.2 kmh NNW 3.0 mph4.8 kmh 29.99 in1015.6 mb 0.00 in0.0 mm 0.00 in0.0 mm 0.00 in0.0 mm
10:40 AM 54.0°F12.2°C 24.8°F-4.0°C 32% 2.0 mph N3.2 kmh N 5.0 mph8.0 kmh 29.99 in1015.6 mb 0.00 in0.0 mm 0.00 in0.0 mm 0.00 in0.0 mm
10:35 AM 55.1°F12.8°C 25.7°F-3.5°C 32% 2.0 mph NW3.2 kmh NW 8.0 mph12.9 kmh 29.99 in1015.6 mb 0.00 in0.0 mm 0.00 in0.0 mm 0.00 in0.0 mm
10:30 AM 56.0°F13.3°C 25.7°F-3.5°C 31% 3.0 mph N4.8 kmh N 8.0 mph12.9 kmh 29.99 in1015.6 mb 0.00 in0.0 mm 0.00 in0.0 mm 0.00 in0.0 mm
10:25 AM 56.2°F13.4°C 28.2°F-2.1°C 34% 2.0 mph NW3.2 kmh NW 5.0 mph8.0 kmh 29.99 in1015.6 mb 0.00 in0.0 mm 0.00 in0.0 mm 0.00 in0.0 mm
10:20 AM 55.4°F13.0°C 27.5°F-2.5°C 34% 4.0 mph SW6.4 kmh SW 6.0 mph9.7 kmh 29.99 in1015.6 mb 0.00 in0.0 mm 0.00 in0.0 mm 0.00 in0.0 mm
10:15 AM 55.0°F12.8°C 27.1°F-2.7°C 34% 2.0 mph SW3.2 kmh SW 7.0 mph11.3 kmh 29.99 in1015.6 mb 0.00 in0.0 mm 0.00 in0.0 mm 0.00 in0.0 mm
10:10 AM 54.6°F12.6°C 27.5°F-2.5°C 35% 3.0 mph S4.8 kmh S 13.0 mph20.9 kmh 29.99 in1015.6 mb 0.00 in0.0 mm 0.00 in0.0 mm 0.00 in0.0 mm
10:05 AM 54.9°F12.7°C 27.0°F-2.8°C 34% Calm Calm 8.0 mph12.9 kmh 29.99 in1015.6 mb 0.00 in0.0 mm 0.00 in0.0 mm 0.00 in0.0 mm
10:00 AM 54.6°F12.6°C 26.8°F-2.9°C 34% 2.0 mph S3.2 kmh S 9.0 mph14.5 kmh 29.99 in1015.6 mb 0.00 in0.0 mm 0.00 in0.0 mm 0.00 in0.0 mm
09:55 AM 54.4°F12.4°C 28.6°F-1.9°C 37% 4.0 mph SE6.4 kmh SE 7.0 mph11.3 kmh 29.99 in1015.6 mb 0.00 in0.0 mm 0.00 in0.0 mm 0.00 in0.0 mm
09:50 AM 54.0°F12.2°C 28.3°F-2.1°C 37% Calm Calm 5.0 mph8.0 kmh 30.00 in1015.9 mb 0.00 in0.0 mm 0.00 in0.0 mm 0.00 in0.0 mm
09:45 AM 53.8°F12.1°C 28.1°F-2.2°C 37% Calm Calm 5.0 mph8.0 kmh 30.00 in1015.9 mb 0.00 in0.0 mm 0.00 in0.0 mm 0.00 in0.0 mm
09:40 AM 53.3°F11.8°C 28.3°F-2.1°C 38% 2.0 mph SE3.2 kmh SE 7.0 mph11.3 kmh 30.00 in1015.9 mb 0.00 in0.0 mm 0.00 in0.0 mm 0.00 in0.0 mm
09:35 AM 52.8°F11.6°C 28.5°F-1.9°C 39% 5.0 mph SSW8.0 kmh SSW 8.0 mph12.9 kmh 30.01 in1016.3 mb 0.00 in0.0 mm 0.00 in0.0 mm 0.00 in0.0 mm
09:30 AM 52.6°F11.4°C 28.3°F-2.1°C 39% 3.0 mph SSE4.8 kmh SSE 9.0 mph14.5 kmh 30.01 in1016.3 mb 0.00 in0.0 mm 0.00 in0.0 mm 0.00 in0.0 mm
09:25 AM 52.2°F11.2°C 28.6°F-1.9°C 40% 3.0 mph S4.8 kmh S 8.0 mph12.9 kmh 30.01 in1016.3 mb 0.00 in0.0 mm 0.00 in0.0 mm 0.00 in0.0 mm
09:20 AM 52.0°F11.1°C 28.4°F-2.0°C 40% 7.0 mph SSE11.3 kmh SSE 10.0 mph16.1 kmh 30.01 in1016.3 mb 0.00 in0.0 mm 0.00 in0.0 mm 0.00 in0.0 mm
09:15 AM 51.9°F11.1°C 28.3°F-2.1°C 40% 3.0 mph SSE4.8 kmh SSE 6.0 mph9.7 kmh 30.01 in1016.3 mb 0.00 in0.0 mm 0.00 in0.0 mm 0.00 in0.0 mm
09:10 AM 51.2°F10.7°C 28.3°F-2.1°C 41% 2.0 mph SW3.2 kmh SW 4.0 mph6.4 kmh 30.01 in1016.3 mb 0.00 in0.0 mm 0.00 in0.0 mm 0.00 in0.0 mm
09:05 AM 50.8°F10.4°C 27.3°F-2.6°C 40% 3.0 mph SW4.8 kmh SW 5.0 mph8.0 kmh 30.02 in1016.6 mb 0.00 in0.0 mm 0.00 in0.0 mm 0.00 in0.0 mm
09:00 AM 50.3°F10.2°C 29.2°F-1.6°C 44% 1.0 mph SW1.6 kmh SW 5.0 mph8.0 kmh 30.02 in1016.6 mb 0.00 in0.0 mm 0.00 in0.0 mm 0.00 in0.0 mm
08:55 AM 49.9°F9.9°C 28.3°F-2.1°C 43% Calm Calm 4.0 mph6.4 kmh 30.02 in1016.6 mb 0.00 in0.0 mm 0.00 in0.0 mm 0.00 in0.0 mm
08:50 AM 49.5°F9.7°C 27.9°F-2.3°C 43% Calm Calm 1.0 mph1.6 kmh 30.02 in1016.6 mb 0.00 in0.0 mm 0.00 in0.0 mm 0.00 in0.0 mm
08:45 AM 49.2°F9.6°C 27.0°F-2.8°C 42% Calm Calm 3.0 mph4.8 kmh 30.02 in1016.6 mb 0.00 in0.0 mm 0.00 in0.0 mm 0.00 in0.0 mm
08:40 AM 49.0°F9.4°C 27.4°F-2.6°C 43% 1.0 mph SW1.6 kmh SW 3.0 mph4.8 kmh 30.02 in1016.6 mb 0.00 in0.0 mm 0.00 in0.0 mm 0.00 in0.0 mm
08:35 AM 48.7°F9.3°C 29.3°F-1.5°C 47% Calm Calm 2.0 mph3.2 kmh 30.02 in1016.6 mb 0.00 in0.0 mm 0.00 in0.0 mm 0.00 in0.0 mm
08:30 AM 48.4°F9.1°C 27.5°F-2.5°C 44% Calm Calm -- 30.02 in1016.6 mb 0.00 in0.0 mm 0.00 in0.0 mm 0.00 in0.0 mm
08:25 AM 48.2°F9.0°C 27.3°F-2.6°C 44% 1.0 mph WSW1.6 kmh WSW 1.0 mph1.6 kmh 30.02 in1016.6 mb 0.00 in0.0 mm 0.00 in0.0 mm 0.00 in0.0 mm
08:20 AM 47.9°F8.8°C 27.0°F-2.8°C 44% Calm Calm 2.0 mph3.2 kmh 30.02 in1016.6 mb 0.00 in0.0 mm 0.00 in0.0 mm 0.00 in0.0 mm
08:15 AM 47.7°F8.7°C 27.9°F-2.3°C 46% Calm Calm 1.0 mph1.6 kmh 30.02 in1016.6 mb 0.00 in0.0 mm 0.00 in0.0 mm 0.00 in0.0 mm
08:10 AM 47.4°F8.6°C 27.6°F-2.4°C 46% 1.0 mph SSW1.6 kmh SSW 1.0 mph1.6 kmh 30.02 in1016.6 mb 0.00 in0.0 mm 0.00 in0.0 mm 0.00 in0.0 mm
08:05 AM 47.1°F8.4°C 26.8°F-2.9°C 45% Calm Calm 1.0 mph1.6 kmh 30.02 in1016.6 mb 0.00 in0.0 mm 0.00 in0.0 mm 0.00 in0.0 mm
08:00 AM 46.8°F8.2°C 27.1°F-2.7°C 46% 1.0 mph SSW1.6 kmh SSW 2.0 mph3.2 kmh 30.02 in1016.6 mb 0.00 in0.0 mm 0.00 in0.0 mm 0.00 in0.0 mm
07:55 AM 46.5°F8.1°C 26.8°F-2.9°C 46% Calm Calm 1.0 mph1.6 kmh 30.02 in1016.6 mb 0.00 in0.0 mm 0.00 in0.0 mm 0.00 in0.0 mm
07:50 AM 46.1°F7.8°C 26.4°F-3.1°C 46% Calm Calm 2.0 mph3.2 kmh 30.02 in1016.6 mb 0.00 in0.0 mm 0.00 in0.0 mm 0.00 in0.0 mm
07:45 AM 45.8°F7.7°C 26.7°F-2.9°C 47% Calm Calm -- 30.02 in1016.6 mb 0.00 in0.0 mm 0.00 in0.0 mm 0.00 in0.0 mm
07:40 AM 45.6°F7.6°C 26.5°F-3.1°C 47% Calm Calm -- 30.02 in1016.6 mb 0.00 in0.0 mm 0.00 in0.0 mm 0.00 in0.0 mm
07:35 AM 45.2°F7.3°C 26.6°F-3.0°C 48% Calm Calm -- 30.02 in1016.6 mb 0.00 in0.0 mm 0.00 in0.0 mm 0.00 in0.0 mm
07:30 AM 44.9°F7.2°C 26.4°F-3.1°C 48% Calm Calm -- 30.02 in1016.6 mb 0.00 in0.0 mm 0.00 in0.0 mm 0.00 in0.0 mm
07:25 AM 44.7°F7.1°C 26.2°F-3.2°C 48% Calm Calm -- 30.02 in1016.6 mb 0.00 in0.0 mm 0.00 in0.0 mm 0.00 in0.0 mm
07:20 AM 44.4°F6.9°C 25.9°F-3.4°C 48% Calm Calm -- 30.02 in1016.6 mb 0.00 in0.0 mm 0.00 in0.0 mm 0.00 in0.0 mm
07:15 AM 44.2°F6.8°C 26.2°F-3.2°C 49% Calm Calm -- 30.02 in1016.6 mb 0.00 in0.0 mm 0.00 in0.0 mm 0.00 in0.0 mm
07:10 AM 44.0°F6.7°C 26.0°F-3.3°C 49% Calm Calm -- 30.02 in1016.6 mb 0.00 in0.0 mm 0.00 in0.0 mm 0.00 in0.0 mm
07:05 AM 43.9°F6.6°C 25.9°F-3.4°C 49% Calm Calm -- 30.02 in1016.6 mb 0.00 in0.0 mm 0.00 in0.0 mm 0.00 in0.0 mm
07:00 AM 43.7°F6.5°C 25.8°F-3.4°C 49% Calm Calm 3.0 mph4.8 kmh 30.02 in1016.6 mb 0.00 in0.0 mm 0.00 in0.0 mm 0.00 in0.0 mm
06:55 AM 43.5°F6.4°C 25.6°F-3.6°C 49% 1.0 mph SSW1.6 kmh SSW 4.0 mph6.4 kmh 30.02 in1016.6 mb 0.00 in0.0 mm 0.00 in0.0 mm 0.00 in0.0 mm
06:50 AM 43.4°F6.3°C 25.5°F-3.6°C 49% Calm Calm 3.0 mph4.8 kmh 30.02 in1016.6 mb 0.00 in0.0 mm 0.00 in0.0 mm 0.00 in0.0 mm
06:45 AM 43.3°F6.3°C 25.4°F-3.7°C 49% 2.0 mph SSW3.2 kmh SSW 4.0 mph6.4 kmh 30.02 in1016.6 mb 0.00 in0.0 mm 0.00 in0.0 mm 0.00 in0.0 mm
06:40 AM 43.1°F6.2°C 25.2°F-3.8°C 49% 3.0 mph SSW4.8 kmh SSW 5.0 mph8.0 kmh 30.02 in1016.6 mb 0.00 in0.0 mm 0.00 in0.0 mm 0.00 in0.0 mm
06:35 AM 42.9°F6.1°C 25.5°F-3.6°C 50% 3.0 mph SSW4.8 kmh SSW 4.0 mph6.4 kmh 30.02 in1016.6 mb 0.00 in0.0 mm 0.00 in0.0 mm 0.00 in0.0 mm
06:30 AM 42.8°F6.0°C 24.9°F-3.9°C 49% Calm Calm 2.0 mph3.2 kmh 30.02 in1016.6 mb 0.00 in0.0 mm 0.00 in0.0 mm 0.00 in0.0 mm
06:25 AM 42.5°F5.8°C 25.1°F-3.8°C 50% 2.0 mph SW3.2 kmh SW 3.0 mph4.8 kmh 30.02 in1016.6 mb 0.00 in0.0 mm 0.00 in0.0 mm 0.00 in0.0 mm
06:20 AM 42.3°F5.7°C 25.4°F-3.7°C 51% 3.0 mph SW4.8 kmh SW 4.0 mph6.4 kmh 30.02 in1016.6 mb 0.00 in0.0 mm 0.00 in0.0 mm 0.00 in0.0 mm
06:15 AM 42.2°F5.7°C 25.3°F-3.7°C 51% 3.0 mph SW4.8 kmh SW 4.0 mph6.4 kmh 30.02 in1016.6 mb 0.00 in0.0 mm 0.00 in0.0 mm 0.00 in0.0 mm
06:10 AM 42.2°F5.7°C 25.3°F-3.7°C 51% 1.0 mph SW1.6 kmh SW 4.0 mph6.4 kmh 30.02 in1016.6 mb 0.00 in0.0 mm 0.00 in0.0 mm 0.00 in0.0 mm
06:05 AM 42.1°F5.6°C 25.2°F-3.8°C 51% 1.0 mph SW1.6 kmh SW 5.0 mph8.0 kmh 30.02 in1016.6 mb 0.00 in0.0 mm 0.00 in0.0 mm 0.00 in0.0 mm
06:00 AM 42.0°F5.6°C 25.1°F-3.8°C 51% 4.0 mph SW6.4 kmh SW 5.0 mph8.0 kmh 30.01 in1016.3 mb 0.00 in0.0 mm 0.00 in0.0 mm 0.00 in0.0 mm
05:55 AM 42.0°F5.6°C 25.1°F-3.8°C 51% 2.0 mph SW3.2 kmh SW 5.0 mph8.0 kmh 30.01 in1016.3 mb 0.00 in0.0 mm 0.00 in0.0 mm 0.00 in0.0 mm
05:50 AM 42.1°F5.6°C 25.2°F-3.8°C 51% 4.0 mph SW6.4 kmh SW 5.0 mph8.0 kmh 30.01 in1016.3 mb 0.00 in0.0 mm 0.00 in0.0 mm 0.00 in0.0 mm
05:45 AM 42.0°F5.6°C 25.1°F-3.8°C 51% 4.0 mph SW6.4 kmh SW 5.0 mph8.0 kmh 30.01 in1016.3 mb 0.00 in0.0 mm 0.00 in0.0 mm 0.00 in0.0 mm
05:40 AM 42.2°F5.7°C 25.3°F-3.7°C 51% 2.0 mph SW3.2 kmh SW 3.0 mph4.8 kmh 30.01 in1016.3 mb 0.00 in0.0 mm 0.00 in0.0 mm 0.00 in0.0 mm
05:35 AM 42.3°F5.7°C 25.0°F-3.9°C 50% 1.0 mph SW1.6 kmh SW 3.0 mph4.8 kmh 30.01 in1016.3 mb 0.00 in0.0 mm 0.00 in0.0 mm 0.00 in0.0 mm
05:30 AM 42.5°F5.8°C 25.1°F-3.8°C 50% 3.0 mph SW4.8 kmh SW 4.0 mph6.4 kmh 30.01 in1016.3 mb 0.00 in0.0 mm 0.00 in0.0 mm 0.00 in0.0 mm
05:25 AM 42.6°F5.9°C 25.2°F-3.8°C 50% 1.0 mph SW1.6 kmh SW 4.0 mph6.4 kmh 30.01 in1016.3 mb 0.00 in0.0 mm 0.00 in0.0 mm 0.00 in0.0 mm
05:20 AM 42.4°F5.8°C 25.0°F-3.9°C 50% 3.0 mph SW4.8 kmh SW 5.0 mph8.0 kmh 30.01 in1016.3 mb 0.00 in0.0 mm 0.00 in0.0 mm 0.00 in0.0 mm
05:15 AM 41.8°F5.4°C 25.4°F-3.7°C 52% Calm Calm 4.0 mph6.4 kmh 30.01 in1016.3 mb 0.00 in0.0 mm 0.00 in0.0 mm 0.00 in0.0 mm
05:10 AM 41.7°F5.4°C 25.3°F-3.7°C 52% 1.0 mph S1.6 kmh S 3.0 mph4.8 kmh 30.00 in1015.9 mb 0.00 in0.0 mm 0.00 in0.0 mm 0.00 in0.0 mm
05:05 AM 41.9°F5.5°C 25.5°F-3.6°C 52% 2.0 mph S3.2 kmh S 2.0 mph3.2 kmh 30.00 in1015.9 mb 0.00 in0.0 mm 0.00 in0.0 mm 0.00 in0.0 mm
05:00 AM 42.0°F5.6°C 25.6°F-3.6°C 52% Calm Calm 2.0 mph3.2 kmh 30.00 in1015.9 mb 0.00 in0.0 mm 0.00 in0.0 mm 0.00 in0.0 mm
04:55 AM 42.0°F5.6°C 25.6°F-3.6°C 52% 2.0 mph S3.2 kmh S 4.0 mph6.4 kmh 30.00 in1015.9 mb 0.00 in0.0 mm 0.00 in0.0 mm 0.00 in0.0 mm
04:50 AM 41.8°F5.4°C 25.4°F-3.7°C 52% 4.0 mph S6.4 kmh S 4.0 mph6.4 kmh 30.00 in1015.9 mb 0.00 in0.0 mm 0.00 in0.0 mm 0.00 in0.0 mm
04:45 AM 41.8°F5.4°C 25.0°F-3.9°C 51% 3.0 mph S4.8 kmh S 4.0 mph6.4 kmh 30.00 in1015.9 mb 0.00 in0.0 mm 0.00 in0.0 mm 0.00 in0.0 mm
04:40 AM 41.8°F5.4°C 25.0°F-3.9°C 51% 3.0 mph S4.8 kmh S 4.0 mph6.4 kmh 30.00 in1015.9 mb 0.00 in0.0 mm 0.00 in0.0 mm 0.00 in0.0 mm
04:35 AM 41.7°F5.4°C 25.3°F-3.7°C 52% 2.0 mph S3.2 kmh S 5.0 mph8.0 kmh 30.00 in1015.9 mb 0.00 in0.0 mm 0.00 in0.0 mm 0.00 in0.0 mm
04:30 AM 41.7°F5.4°C 25.3°F-3.7°C 52% 4.0 mph S6.4 kmh S 5.0 mph8.0 kmh 30.00 in1015.9 mb 0.00 in0.0 mm 0.00 in0.0 mm 0.00 in0.0 mm
04:25 AM 41.7°F5.4°C 25.3°F-3.7°C 52% 2.0 mph S3.2 kmh S 5.0 mph8.0 kmh 30.00 in1015.9 mb 0.00 in0.0 mm 0.00 in0.0 mm 0.00 in0.0 mm
04:20 AM 41.7°F5.4°C 25.3°F-3.7°C 52% 3.0 mph S4.8 kmh S 5.0 mph8.0 kmh 30.00 in1015.9 mb 0.00 in0.0 mm 0.00 in0.0 mm 0.00 in0.0 mm
04:15 AM 41.7°F5.4°C 25.8°F-3.4°C 53% 3.0 mph S4.8 kmh S 5.0 mph8.0 kmh 30.00 in1015.9 mb 0.00 in0.0 mm 0.00 in0.0 mm 0.00 in0.0 mm
04:10 AM 41.9°F5.5°C 26.0°F-3.3°C 53% 2.0 mph SSW3.2 kmh SSW 3.0 mph4.8 kmh 30.00 in1015.9 mb 0.00 in0.0 mm 0.00 in0.0 mm 0.00 in0.0 mm
04:05 AM 41.8°F5.4°C 25.9°F-3.4°C 53% 3.0 mph SSW4.8 kmh SSW 4.0 mph6.4 kmh 30.00 in1015.9 mb 0.00 in0.0 mm 0.00 in0.0 mm 0.00 in0.0 mm
04:00 AM 41.7°F5.4°C 26.2°F-3.2°C 54% 3.0 mph S4.8 kmh S 7.0 mph11.3 kmh 30.00 in1015.9 mb 0.00 in0.0 mm 0.00 in0.0 mm 0.00 in0.0 mm
03:55 AM 41.7°F5.4°C 26.2°F-3.2°C 54% 3.0 mph SSW4.8 kmh SSW 5.0 mph8.0 kmh 30.00 in1015.9 mb 0.00 in0.0 mm 0.00 in0.0 mm 0.00 in0.0 mm
03:50 AM 41.8°F5.4°C 26.3°F-3.2°C 54% 2.0 mph SSW3.2 kmh SSW 4.0 mph6.4 kmh 30.00 in1015.9 mb 0.00 in0.0 mm 0.00 in0.0 mm 0.00 in0.0 mm
03:45 AM 42.0°F5.6°C 26.5°F-3.1°C 54% 3.0 mph SSW4.8 kmh SSW 4.0 mph6.4 kmh 30.00 in1015.9 mb 0.00 in0.0 mm 0.00 in0.0 mm 0.00 in0.0 mm
03:40 AM 42.2°F5.7°C 26.7°F-2.9°C 54% 1.0 mph WSW1.6 kmh WSW 4.0 mph6.4 kmh 30.00 in1015.9 mb 0.00 in0.0 mm 0.00 in0.0 mm 0.00 in0.0 mm
03:35 AM 42.1°F5.6°C 27.1°F-2.7°C 55% 2.0 mph WSW3.2 kmh WSW 4.0 mph6.4 kmh 30.00 in1015.9 mb 0.00 in0.0 mm 0.00 in0.0 mm 0.00 in0.0 mm
03:30 AM 41.9°F5.5°C 27.3°F-2.6°C 56% 2.0 mph WSW3.2 kmh WSW 4.0 mph6.4 kmh 30.00 in1015.9 mb 0.00 in0.0 mm 0.00 in0.0 mm 0.00 in0.0 mm
03:25 AM 41.8°F5.4°C 27.2°F-2.7°C 56% 2.0 mph WSW3.2 kmh WSW 4.0 mph6.4 kmh 30.00 in1015.9 mb 0.00 in0.0 mm 0.00 in0.0 mm 0.00 in0.0 mm
03:20 AM 41.7°F5.4°C 27.1°F-2.7°C 56% 2.0 mph SSW3.2 kmh SSW 3.0 mph4.8 kmh 30.00 in1015.9 mb 0.00 in0.0 mm 0.00 in0.0 mm 0.00 in0.0 mm
03:15 AM 41.9°F5.5°C 27.7°F-2.4°C 57% Calm Calm 2.0 mph3.2 kmh 30.00 in1015.9 mb 0.00 in0.0 mm 0.00 in0.0 mm 0.00 in0.0 mm
03:10 AM 41.9°F5.5°C 27.7°F-2.4°C 57% 1.0 mph SSW1.6 kmh SSW 2.0 mph3.2 kmh 30.00 in1015.9 mb 0.00 in0.0 mm 0.00 in0.0 mm 0.00 in0.0 mm
03:05 AM 41.9°F5.5°C 27.7°F-2.4°C 57% Calm Calm -- 30.00 in1015.9 mb 0.00 in0.0 mm 0.00 in0.0 mm 0.00 in0.0 mm
03:00 AM 41.9°F5.5°C 27.7°F-2.4°C 57% Calm Calm 2.0 mph3.2 kmh 30.00 in1015.9 mb 0.00 in0.0 mm 0.00 in0.0 mm 0.00 in0.0 mm
02:55 AM 41.8°F5.4°C 28.1°F-2.2°C 58% 1.0 mph SSW1.6 kmh SSW 5.0 mph8.0 kmh 30.01 in1016.3 mb 0.00 in0.0 mm 0.00 in0.0 mm 0.00 in0.0 mm
02:50 AM 41.8°F5.4°C 28.1°F-2.2°C 58% 4.0 mph SSW6.4 kmh SSW 4.0 mph6.4 kmh 30.01 in1016.3 mb 0.00 in0.0 mm 0.00 in0.0 mm 0.00 in0.0 mm
02:45 AM 41.7°F5.4°C 28.4°F-2.0°C 59% 2.0 mph SSW3.2 kmh SSW 4.0 mph6.4 kmh 30.01 in1016.3 mb 0.00 in0.0 mm 0.00 in0.0 mm 0.00 in0.0 mm
02:40 AM 41.5°F5.3°C 28.2°F-2.1°C 59% 2.0 mph SSW3.2 kmh SSW 4.0 mph6.4 kmh 30.01 in1016.3 mb 0.00 in0.0 mm 0.00 in0.0 mm 0.00 in0.0 mm
02:35 AM 41.5°F5.3°C 28.6°F-1.9°C 60% 2.0 mph SSW3.2 kmh SSW 3.0 mph4.8 kmh 30.01 in1016.3 mb 0.00 in0.0 mm 0.00 in0.0 mm 0.00 in0.0 mm
02:30 AM 41.5°F5.3°C 28.6°F-1.9°C 60% 2.0 mph SSW3.2 kmh SSW 3.0 mph4.8 kmh 30.01 in1016.3 mb 0.00 in0.0 mm 0.00 in0.0 mm 0.00 in0.0 mm
02:25 AM 41.5°F5.3°C 28.6°F-1.9°C 60% 2.0 mph SSW3.2 kmh SSW 4.0 mph6.4 kmh 30.01 in1016.3 mb 0.00 in0.0 mm 0.00 in0.0 mm 0.00 in0.0 mm
02:20 AM 41.6°F5.3°C 29.1°F-1.6°C 61% 3.0 mph SSW4.8 kmh SSW 3.0 mph4.8 kmh 30.01 in1016.3 mb 0.00 in0.0 mm 0.00 in0.0 mm 0.00 in0.0 mm
02:15 AM 41.5°F5.3°C 29.0°F-1.7°C 61% Calm Calm 4.0 mph6.4 kmh 30.01 in1016.3 mb 0.00 in0.0 mm 0.00 in0.0 mm 0.00 in0.0 mm
02:10 AM 41.4°F5.2°C 28.9°F-1.7°C 61% 3.0 mph SSW4.8 kmh SSW 4.0 mph6.4 kmh 30.01 in1016.3 mb 0.00 in0.0 mm 0.00 in0.0 mm 0.00 in0.0 mm
02:05 AM 41.3°F5.2°C 28.8°F-1.8°C 61% 4.0 mph SSW6.4 kmh SSW 4.0 mph6.4 kmh 30.02 in1016.6 mb 0.00 in0.0 mm 0.00 in0.0 mm 0.00 in0.0 mm
02:00 AM 41.2°F5.1°C 29.1°F-1.6°C 62% 4.0 mph SSW6.4 kmh SSW 5.0 mph8.0 kmh 30.02 in1016.6 mb 0.00 in0.0 mm 0.00 in0.0 mm 0.00 in0.0 mm
01:55 AM 41.2°F5.1°C 29.1°F-1.6°C 62% 2.0 mph SSW3.2 kmh SSW 5.0 mph8.0 kmh 30.02 in1016.6 mb 0.00 in0.0 mm 0.00 in0.0 mm 0.00 in0.0 mm
01:50 AM 41.2°F5.1°C 29.1°F-1.6°C 62% 3.0 mph SSW4.8 kmh SSW 5.0 mph8.0 kmh 30.02 in1016.6 mb 0.00 in0.0 mm 0.00 in0.0 mm 0.00 in0.0 mm
01:45 AM 41.2°F5.1°C 29.1°F-1.6°C 62% 2.0 mph SSW3.2 kmh SSW 4.0 mph6.4 kmh 30.02 in1016.6 mb 0.00 in0.0 mm 0.00 in0.0 mm 0.00 in0.0 mm
01:40 AM 41.3°F5.2°C 29.2°F-1.6°C 62% 4.0 mph SSW6.4 kmh SSW 5.0 mph8.0 kmh 30.02 in1016.6 mb 0.00 in0.0 mm 0.00 in0.0 mm 0.00 in0.0 mm
01:35 AM 41.3°F5.2°C 29.2°F-1.6°C 62% 3.0 mph S4.8 kmh S 5.0 mph8.0 kmh 30.02 in1016.6 mb 0.00 in0.0 mm 0.00 in0.0 mm 0.00 in0.0 mm
01:30 AM 41.4°F5.2°C 29.3°F-1.5°C 62% 3.0 mph S4.8 kmh S 4.0 mph6.4 kmh 30.02 in1016.6 mb 0.00 in0.0 mm 0.00 in0.0 mm 0.00 in0.0 mm
01:25 AM 41.5°F5.3°C 29.0°F-1.7°C 61% Calm Calm 3.0 mph4.8 kmh 30.02 in1016.6 mb 0.00 in0.0 mm 0.00 in0.0 mm 0.00 in0.0 mm
01:20 AM 41.4°F5.2°C 28.9°F-1.7°C 61% 2.0 mph SSW3.2 kmh SSW 4.0 mph6.4 kmh 30.02 in1016.6 mb 0.00 in0.0 mm 0.00 in0.0 mm 0.00 in0.0 mm
01:15 AM 41.3°F5.2°C 29.2°F-1.6°C 62% 3.0 mph SSW4.8 kmh SSW 3.0 mph4.8 kmh 30.02 in1016.6 mb 0.00 in0.0 mm 0.00 in0.0 mm 0.00 in0.0 mm
01:10 AM 41.1°F5.1°C 29.0°F-1.7°C 62% 3.0 mph SSW4.8 kmh SSW 3.0 mph4.8 kmh 30.02 in1016.6 mb 0.00 in0.0 mm 0.00 in0.0 mm 0.00 in0.0 mm
01:05 AM 41.2°F5.1°C 29.1°F-1.6°C 62% 2.0 mph SSW3.2 kmh SSW 3.0 mph4.8 kmh 30.02 in1016.6 mb 0.00 in0.0 mm 0.00 in0.0 mm 0.00 in0.0 mm
01:00 AM 41.2°F5.1°C 29.1°F-1.6°C 62% 1.0 mph SSW1.6 kmh SSW 3.0 mph4.8 kmh 30.02 in1016.6 mb 0.00 in0.0 mm 0.00 in0.0 mm 0.00 in0.0 mm
12:55 AM 41.2°F5.1°C 29.1°F-1.6°C 62% 2.0 mph SSW3.2 kmh SSW 4.0 mph6.4 kmh 30.02 in1016.6 mb 0.00 in0.0 mm 0.00 in0.0 mm 0.00 in0.0 mm
12:50 AM 41.2°F5.1°C 29.1°F-1.6°C 62% 3.0 mph SSW4.8 kmh SSW 5.0 mph8.0 kmh 30.02 in1016.6 mb 0.00 in0.0 mm 0.00 in0.0 mm 0.00 in0.0 mm
12:45 AM 41.3°F5.2°C 29.2°F-1.6°C 62% 4.0 mph SSW6.4 kmh SSW 5.0 mph8.0 kmh 30.02 in1016.6 mb 0.00 in0.0 mm 0.00 in0.0 mm 0.00 in0.0 mm
12:40 AM 41.2°F5.1°C 29.1°F-1.6°C 62% 3.0 mph SSW4.8 kmh SSW 5.0 mph8.0 kmh 30.03 in1016.9 mb 0.00 in0.0 mm 0.00 in0.0 mm 0.00 in0.0 mm
12:35 AM 41.2°F5.1°C 29.1°F-1.6°C 62% 2.0 mph SSW3.2 kmh SSW 5.0 mph8.0 kmh 30.02 in1016.6 mb 0.00 in0.0 mm 0.00 in0.0 mm 0.00 in0.0 mm
12:30 AM 41.4°F5.2°C 29.3°F-1.5°C 62% 3.0 mph SSW4.8 kmh SSW 5.0 mph8.0 kmh 30.02 in1016.6 mb 0.00 in0.0 mm 0.00 in0.0 mm 0.00 in0.0 mm
12:25 AM 41.6°F5.3°C 29.5°F-1.4°C 62% 5.0 mph SSW8.0 kmh SSW 5.0 mph8.0 kmh 30.02 in1016.6 mb 0.00 in0.0 mm 0.00 in0.0 mm 0.00 in0.0 mm
12:20 AM 41.9°F5.5°C 29.8°F-1.2°C 62% 3.0 mph SSW4.8 kmh SSW 4.0 mph6.4 kmh 30.03 in1016.9 mb 0.00 in0.0 mm 0.00 in0.0 mm 0.00 in0.0 mm
12:15 AM 42.1°F5.6°C 30.0°F-1.1°C 62% 3.0 mph SSW4.8 kmh SSW 4.0 mph6.4 kmh 30.02 in1016.6 mb 0.00 in0.0 mm 0.00 in0.0 mm 0.00 in0.0 mm
12:10 AM 42.1°F5.6°C 30.0°F-1.1°C 62% 3.0 mph SSW4.8 kmh SSW 3.0 mph4.8 kmh 30.02 in1016.6 mb 0.00 in0.0 mm 0.00 in0.0 mm 0.00 in0.0 mm
12:05 AM 42.3°F5.7°C 29.8°F-1.2°C 61% 1.0 mph SSW1.6 kmh SSW 3.0 mph4.8 kmh 30.03 in1016.9 mb 0.00 in0.0 mm 0.00 in0.0 mm 0.00 in0.0 mm
12:00 AM 42.4°F5.8°C 29.9°F-1.2°C 61% Calm Calm 5.0 mph8.0 kmh 30.03 in1016.9 mb 0.00 in0.0 mm 0.00 in0.0 mm 0.01 in0.3 mm